createdAt,value
2018-06-20T00:01:09.210Z,98838.15
2018-06-20T00:03:38.644Z,98838.08
2018-06-20T00:06:07.973Z,98834.72
2018-06-20T00:08:42.452Z,98833.35
2018-06-20T00:11:11.775Z,98826.55
2018-06-20T00:13:41.138Z,98841.28
2018-06-20T00:16:10.528Z,98830.13
2018-06-20T00:18:39.877Z,98827.23
2018-06-20T00:21:09.299Z,98820.02
2018-06-20T00:23:38.624Z,98816.05
2018-06-20T00:26:07.956Z,98822.00
2018-06-20T00:28:37.348Z,98825.09
2018-06-20T00:31:06.880Z,98823.77
2018-06-20T00:33:36.300Z,98811.33
2018-06-20T00:36:05.696Z,98808.78
2018-06-20T00:38:35.185Z,98803.13
2018-06-20T00:41:04.504Z,98811.84
2018-06-20T00:43:33.902Z,98812.69
2018-06-20T00:46:03.365Z,98803.73
2018-06-20T00:48:32.670Z,98804.63
2018-06-20T00:51:01.996Z,98803.84
2018-06-20T00:53:31.473Z,98809.03
2018-06-20T00:56:17.906Z,98797.50
2018-06-20T00:58:47.236Z,98797.53
2018-06-20T01:01:16.588Z,98793.75
2018-06-20T01:03:46.163Z,98793.69
2018-06-20T01:06:15.588Z,98789.81
2018-06-20T01:08:44.906Z,98789.84
2018-06-20T01:11:14.220Z,98785.12
2018-06-20T01:13:43.570Z,98786.06
2018-06-20T01:16:12.916Z,98781.75
2018-06-20T01:18:42.248Z,98780.49
2018-06-20T01:21:11.591Z,98785.27
2018-06-20T01:23:40.941Z,98789.20
2018-06-20T01:26:10.248Z,98788.02
2018-06-20T01:28:39.609Z,98796.25
2018-06-20T01:31:08.956Z,98791.60
2018-06-20T01:33:38.359Z,98799.78
2018-06-20T01:36:07.700Z,98799.70
2018-06-20T01:38:37.052Z,98801.41
2018-06-20T01:41:06.601Z,98798.34
2018-06-20T01:43:35.960Z,98791.42
2018-06-20T01:46:05.299Z,98794.91
2018-06-20T01:48:34.660Z,98791.04
2018-06-20T01:51:03.980Z,98787.98
2018-06-20T01:53:33.478Z,98784.17
2018-06-20T01:56:02.921Z,98786.64
2018-06-20T01:58:32.245Z,98785.33
2018-06-20T02:01:01.582Z,98793.95
2018-06-20T02:03:30.880Z,98787.44
2018-06-20T02:06:00.225Z,98788.14
2018-06-20T02:08:29.556Z,98784.75
2018-06-20T02:10:58.913Z,98783.02
2018-06-20T02:13:28.264Z,98792.08
2018-06-20T02:15:57.597Z,98793.45
2018-06-20T02:18:26.963Z,98788.29
2018-06-20T02:20:56.260Z,98785.77
2018-06-20T02:23:25.579Z,98787.44
2018-06-20T02:25:54.934Z,98782.31
2018-06-20T02:28:24.235Z,98782.36
2018-06-20T02:30:53.608Z,98784.15
2018-06-20T02:33:22.952Z,98788.86
2018-06-20T02:35:52.276Z,98794.13
2018-06-20T02:38:21.617Z,98787.58
2018-06-20T02:40:50.978Z,98792.33
2018-06-20T02:43:20.411Z,98791.88
2018-06-20T02:45:49.818Z,98795.30
2018-06-20T02:48:18.900Z,98788.31
2018-06-20T02:50:48.205Z,98783.23
2018-06-20T02:53:17.609Z,98782.36
2018-06-20T02:55:46.950Z,98770.61
2018-06-20T02:58:16.313Z,98778.41
2018-06-20T03:00:45.398Z,98768.12
2018-06-20T03:03:14.708Z,98768.00
2018-06-20T03:05:44.057Z,98766.36
2018-06-20T03:08:13.384Z,98771.52
2018-06-20T03:10:42.753Z,98773.33
2018-06-20T03:13:12.158Z,98772.07
2018-06-20T03:15:41.488Z,98773.66
2018-06-20T03:18:10.872Z,98772.37
2018-06-20T03:20:40.195Z,98771.90
2018-06-20T03:23:09.521Z,98771.98
2018-06-20T03:25:38.920Z,98772.40
2018-06-20T03:28:08.257Z,98774.06
2018-06-20T03:30:37.613Z,98778.35
2018-06-20T03:33:06.940Z,98774.48
2018-06-20T03:35:36.277Z,98769.31
2018-06-20T03:38:05.628Z,98774.80
2018-06-20T03:40:35.230Z,98775.63
2018-06-20T03:43:04.602Z,98780.02
2018-06-20T03:45:33.928Z,98771.40
2018-06-20T03:48:03.296Z,98767.09
2018-06-20T03:50:32.627Z,98777.06
2018-06-20T03:53:01.940Z,98775.71
2018-06-20T03:55:31.277Z,98776.44
2018-06-20T03:58:00.688Z,98773.77
2018-06-20T04:00:29.988Z,98763.06
2018-06-20T04:02:59.297Z,98763.38
2018-06-20T04:05:30.329Z,98761.58
2018-06-20T04:08:00.159Z,98761.06
2018-06-20T04:10:29.509Z,98765.82
2018-06-20T04:12:58.821Z,98759.47
2018-06-20T04:15:28.180Z,98762.36
2018-06-20T04:17:57.505Z,98761.92
2018-06-20T04:20:26.951Z,98764.80
2018-06-20T04:22:56.287Z,98760.48
2018-06-20T04:25:25.608Z,98756.06
2018-06-20T04:27:55.002Z,98757.70
2018-06-20T04:30:24.344Z,98756.98
2018-06-20T04:32:53.847Z,98753.05
2018-06-20T04:35:23.172Z,98755.08
2018-06-20T04:37:52.565Z,98758.89
2018-06-20T04:40:21.872Z,98750.97
2018-06-20T04:42:51.186Z,98754.54
2018-06-20T04:45:20.543Z,98757.86
2018-06-20T04:47:49.851Z,98755.80
2018-06-20T04:50:19.252Z,98755.35
2018-06-20T04:52:48.674Z,98757.94
2018-06-20T04:55:17.976Z,98757.49
2018-06-20T04:57:47.292Z,98754.02
2018-06-20T05:00:16.612Z,98753.32
2018-06-20T05:02:45.918Z,98755.79
2018-06-20T05:05:15.256Z,98757.52
2018-06-20T05:07:44.588Z,98752.77
2018-06-20T05:10:13.888Z,98751.25
2018-06-20T05:12:43.204Z,98753.01
2018-06-20T05:15:12.599Z,98746.73
2018-06-20T05:17:41.900Z,98742.30
2018-06-20T05:20:11.262Z,98740.64
2018-06-20T05:22:40.681Z,98735.00
2018-06-20T05:25:09.922Z,98739.01
2018-06-20T05:27:39.239Z,98735.98
2018-06-20T05:30:08.572Z,98732.22
2018-06-20T05:32:37.999Z,98729.22
2018-06-20T05:35:07.297Z,98724.26
2018-06-20T05:37:36.632Z,98726.24
2018-06-20T05:40:06.397Z,98724.88
2018-06-20T05:42:35.725Z,98724.10
2018-06-20T05:45:05.407Z,98719.08
2018-06-20T05:47:34.820Z,98722.09
2018-06-20T05:50:04.185Z,98724.55
2018-06-20T05:52:33.521Z,98723.16
2018-06-20T05:55:02.891Z,98721.83
2018-06-20T05:57:32.325Z,98727.53
2018-06-20T06:00:01.654Z,98728.37
2018-06-20T06:02:31.008Z,98717.86
2018-06-20T06:05:00.367Z,98717.89
2018-06-20T06:07:29.703Z,98718.97
2018-06-20T06:09:59.050Z,98717.84
2018-06-20T06:12:28.385Z,98724.56
2018-06-20T06:14:57.715Z,98725.53
2018-06-20T06:17:27.085Z,98724.17
2018-06-20T06:19:56.444Z,98720.92
2018-06-20T06:22:25.736Z,98724.23
2018-06-20T06:24:55.069Z,98724.81
2018-06-20T06:27:24.416Z,98726.27
2018-06-20T06:29:53.727Z,98720.89
2018-06-20T06:32:23.040Z,98720.27
2018-06-20T06:34:52.368Z,98721.55
2018-06-20T06:37:21.676Z,98719.56
2018-06-20T06:39:51.054Z,98717.38
2018-06-20T06:42:20.381Z,98711.39
2018-06-20T06:44:49.708Z,98716.36
2018-06-20T06:47:19.018Z,98720.64
2018-06-20T06:49:48.376Z,98713.30
2018-06-20T06:52:17.664Z,98713.14
2018-06-20T06:54:46.992Z,98702.39
2018-06-20T06:57:16.419Z,98701.59
2018-06-20T06:59:45.733Z,98704.09
2018-06-20T07:02:15.072Z,98712.06
2018-06-20T07:04:44.463Z,98709.59
2018-06-20T07:07:13.764Z,98711.70
2018-06-20T07:09:43.091Z,98708.78
2018-06-20T07:12:12.428Z,98708.72
2018-06-20T07:14:41.757Z,98707.12
2018-06-20T07:17:11.093Z,98705.86
2018-06-20T07:19:40.442Z,98703.05
2018-06-20T07:22:09.775Z,98711.79
2018-06-20T07:24:39.363Z,98702.70
2018-06-20T07:27:08.449Z,98700.38
2018-06-20T07:29:37.820Z,98703.72
2018-06-20T07:32:07.264Z,98698.73
2018-06-20T07:34:36.577Z,98698.63
2018-06-20T07:37:05.961Z,98698.16
2018-06-20T07:39:35.573Z,98695.84
2018-06-20T07:42:04.920Z,98693.82
2018-06-20T07:44:34.461Z,98689.37
2018-06-20T07:47:03.531Z,98682.54
2018-06-20T07:49:32.827Z,98680.20
2018-06-20T07:52:02.168Z,98678.50
2018-06-20T07:54:31.584Z,98676.36
2018-06-20T07:57:00.901Z,98690.97
2018-06-20T07:59:35.543Z,98695.20
2018-06-20T08:02:27.271Z,98690.14
2018-06-20T08:05:01.945Z,98687.22
2018-06-20T08:07:36.579Z,98688.45
2018-06-20T08:10:11.036Z,98689.59
2018-06-20T08:12:45.477Z,98687.16
2018-06-20T08:15:18.873Z,98689.16
2018-06-20T08:17:53.420Z,98689.22
2018-06-20T08:20:25.125Z,98682.59
2018-06-20T08:22:54.428Z,98680.34
2018-06-20T08:25:23.774Z,98682.84
2018-06-20T08:27:53.101Z,98687.79
2018-06-20T08:30:22.192Z,98685.83
2018-06-20T08:32:51.568Z,98683.07
2018-06-20T08:35:20.884Z,98679.19
2018-06-20T08:37:50.213Z,98677.46
2018-06-20T08:40:19.544Z,98678.09
2018-06-20T08:42:48.875Z,98673.20
2018-06-20T08:45:18.200Z,98676.67
2018-06-20T08:47:47.592Z,98677.09
2018-06-20T08:50:16.908Z,98680.48
2018-06-20T08:52:46.232Z,98683.12
2018-06-20T08:55:15.568Z,98676.78
2018-06-20T08:57:44.893Z,98676.92
2018-06-20T09:00:14.324Z,98672.16
2018-06-20T09:02:43.665Z,98672.80
2018-06-20T09:05:18.157Z,98670.17
2018-06-20T09:07:52.744Z,98670.52
2018-06-20T09:10:27.199Z,98670.99
2018-06-20T09:13:01.901Z,98672.23
2018-06-20T09:15:36.485Z,98670.80
2018-06-20T09:18:11.183Z,98666.95
2018-06-20T09:20:40.519Z,98665.17
2018-06-20T09:23:09.871Z,98664.55
2018-06-20T09:25:39.196Z,98663.44
2018-06-20T09:28:08.610Z,98664.07
2018-06-20T09:30:38.081Z,98661.77
2018-06-20T09:33:07.451Z,98653.94
2018-06-20T09:35:36.836Z,98647.51
2018-06-20T09:38:06.137Z,98650.53
2018-06-20T09:40:35.490Z,98646.73
2018-06-20T09:43:04.810Z,98652.30
2018-06-20T09:45:34.148Z,98649.14
2018-06-20T09:48:03.497Z,98644.20
2018-06-20T09:50:38.121Z,98647.26
2018-06-20T09:53:07.440Z,98639.92
2018-06-20T09:55:36.758Z,98639.42
2018-06-20T09:58:06.068Z,98645.53
2018-06-20T10:00:40.796Z,98639.83
2018-06-20T10:04:15.205Z,98628.36
2018-06-20T10:06:49.790Z,98632.87
2018-06-20T10:09:24.424Z,98634.31
2018-06-20T10:11:58.980Z,98631.91
2018-06-20T10:14:28.303Z,98623.45
2018-06-20T10:16:57.615Z,98626.43
2018-06-20T10:19:26.948Z,98620.59
2018-06-20T10:21:56.665Z,98619.17
2018-06-20T10:24:25.991Z,98618.88
2018-06-20T10:26:55.347Z,98618.41
2018-06-20T10:29:24.657Z,98609.38
2018-06-20T10:31:54.060Z,98608.30
2018-06-20T10:34:23.375Z,98605.47
2018-06-20T10:36:52.805Z,98601.21
2018-06-20T10:39:22.144Z,98591.46
2018-06-20T10:41:51.585Z,98592.43
2018-06-20T10:44:20.938Z,98591.47
2018-06-20T10:47:53.425Z,98587.64
2018-06-20T10:50:22.477Z,98581.04
2018-06-20T10:52:51.803Z,98577.28
2018-06-20T10:55:21.158Z,98580.03
2018-06-20T10:57:55.736Z,98580.14
2018-06-20T11:00:30.393Z,98566.06
2018-06-20T11:03:04.888Z,98563.38
2018-06-20T11:05:39.337Z,98559.38
2018-06-20T11:09:14.619Z,98555.00
2018-06-20T11:11:49.081Z,98543.35
2018-06-20T11:14:18.434Z,98543.73
2018-06-20T11:16:47.770Z,98536.91
2018-06-20T11:19:17.116Z,98533.10
2018-06-20T11:21:46.439Z,98533.48
2018-06-20T11:24:15.760Z,98532.38
2018-06-20T11:26:45.079Z,98529.69
2018-06-20T11:29:14.676Z,98533.84
2018-06-20T11:31:43.997Z,98525.09
2018-06-20T11:34:13.452Z,98521.06
2018-06-20T11:36:42.820Z,98521.56
2018-06-20T11:39:13.284Z,98511.86
2018-06-20T11:41:42.864Z,98503.22
2018-06-20T11:44:12.211Z,98507.09
2018-06-20T11:46:47.056Z,98502.03
2018-06-20T11:49:16.417Z,98503.14
2018-06-20T11:51:45.723Z,98497.23
2018-06-20T11:54:15.046Z,98493.41
2018-06-20T11:56:44.373Z,98496.00
2018-06-20T11:59:18.930Z,98483.55
2018-06-20T12:01:53.777Z,98484.70
2018-06-20T12:04:28.256Z,98482.86
2018-06-20T12:07:02.713Z,98475.31
2018-06-20T12:09:37.183Z,98475.16
2018-06-20T12:12:11.768Z,98474.53
2018-06-20T12:14:46.388Z,98464.39
2018-06-20T12:17:20.914Z,98466.81
2018-06-20T12:19:55.529Z,98462.88
2018-06-20T12:22:30.228Z,98458.68
2018-06-20T12:25:04.852Z,98461.45
2018-06-20T12:27:39.261Z,98456.45
2018-06-20T12:30:13.774Z,98447.00
2018-06-20T12:32:48.272Z,98447.59
2018-06-20T12:35:22.980Z,98449.59
2018-06-20T12:37:57.643Z,98443.63
2018-06-20T12:40:32.319Z,98437.42
2018-06-20T12:44:09.874Z,98439.36
2018-06-20T12:47:45.218Z,98441.64
2018-06-20T12:50:19.847Z,98437.80
2018-06-20T12:52:49.927Z,98433.22
2018-06-20T12:55:19.412Z,98426.13
2018-06-20T12:57:48.732Z,98425.41
2018-06-20T13:00:18.070Z,98425.30
2018-06-20T13:02:47.468Z,98416.41
2018-06-20T13:05:17.248Z,98414.71
2018-06-20T13:07:46.609Z,98405.31
2018-06-20T13:10:15.924Z,98400.67
2018-06-20T13:12:45.285Z,98406.19
2018-06-20T13:15:14.636Z,98406.52
2018-06-20T13:17:43.945Z,98406.85
2018-06-20T13:20:13.333Z,98407.53
2018-06-20T13:22:42.625Z,98405.42
2018-06-20T13:25:11.967Z,98404.06
2018-06-20T13:27:46.589Z,98396.83
2018-06-20T13:30:16.652Z,98397.33
2018-06-20T13:32:51.192Z,98395.09
2018-06-20T13:35:25.728Z,98389.62
2018-06-20T13:38:00.459Z,98383.30
2018-06-20T13:40:35.040Z,98387.05
2018-06-20T13:43:09.618Z,98378.56
2018-06-20T13:45:44.171Z,98375.06
2018-06-20T13:48:18.703Z,98375.35
2018-06-20T13:50:48.032Z,98368.47
2018-06-20T13:53:17.361Z,98371.20
2018-06-20T13:55:46.703Z,98368.34
2018-06-20T13:58:16.586Z,98368.97
2018-06-20T14:00:45.913Z,98357.17
2018-06-20T14:03:15.256Z,98361.48
2018-06-20T14:05:44.588Z,98362.80
2018-06-20T14:08:13.905Z,98349.59
2018-06-20T14:10:43.218Z,98342.00
2018-06-20T14:13:12.552Z,98346.03
2018-06-20T14:15:41.872Z,98339.98
2018-06-20T14:18:11.229Z,98345.67
2018-06-20T14:20:45.725Z,98341.99
2018-06-20T14:23:15.183Z,98337.61
2018-06-20T14:25:44.504Z,98333.45
2018-06-20T14:28:13.840Z,98340.73
2018-06-20T14:30:48.411Z,98333.73
2018-06-20T14:33:23.021Z,98337.01
2018-06-20T14:35:57.660Z,98343.91
2018-06-20T14:38:32.106Z,98332.92
2018-06-20T14:41:06.781Z,98330.59
2018-06-20T14:43:41.169Z,98319.76
2018-06-20T14:46:16.425Z,98329.94
2018-06-20T14:48:46.425Z,98332.06
2018-06-20T14:51:16.234Z,98327.81
2018-06-20T14:53:46.450Z,98315.48
2018-06-20T14:56:16.632Z,98316.13
2018-06-20T14:58:46.298Z,98309.00
2018-06-20T15:01:16.076Z,98311.27
2018-06-20T15:03:45.688Z,98310.38
2018-06-20T15:06:15.288Z,98306.51
2018-06-20T15:08:44.644Z,98303.86
2018-06-20T15:11:14.020Z,98304.50
2018-06-20T15:13:43.506Z,98293.22
2018-06-20T15:16:18.111Z,98300.53
2018-06-20T15:18:47.641Z,98298.05
2018-06-20T15:21:16.944Z,98294.91
2018-06-20T15:23:46.385Z,98294.37
2018-06-20T15:26:20.920Z,98286.21
2018-06-20T15:28:55.548Z,98285.13
2018-06-20T15:31:30.084Z,98283.60
2018-06-20T15:34:04.753Z,98277.55
2018-06-20T15:36:39.320Z,98283.22
2018-06-20T15:39:09.394Z,98274.80
2018-06-20T15:41:38.741Z,98273.05
2018-06-20T15:44:08.072Z,98278.23
2018-06-20T15:46:37.407Z,98273.17
2018-06-20T15:49:06.756Z,98267.59
2018-06-20T15:51:36.067Z,98275.75
2018-06-20T15:54:05.556Z,98261.55
2018-06-20T15:56:34.881Z,98254.33
2018-06-20T15:59:04.392Z,98257.25
2018-06-20T16:01:33.792Z,98255.14
2018-06-20T16:04:03.174Z,98250.27
2018-06-20T16:06:32.717Z,98246.69
2018-06-20T16:09:07.434Z,98240.76
2018-06-20T16:11:36.973Z,98243.39
2018-06-20T16:14:06.699Z,98242.22
2018-06-20T16:16:36.103Z,98242.31
2018-06-20T16:19:10.876Z,98237.91
2018-06-20T16:21:45.532Z,98237.63
2018-06-20T16:24:20.368Z,98237.86
2018-06-20T16:26:55.077Z,98232.51
2018-06-20T16:29:29.931Z,98234.45
2018-06-20T16:31:59.699Z,98221.91
2018-06-20T16:34:29.322Z,98228.49
2018-06-20T16:36:58.909Z,98229.88
2018-06-20T16:39:28.527Z,98220.72
2018-06-20T16:41:58.182Z,98225.58
2018-06-20T16:44:27.800Z,98224.39
2018-06-20T16:46:57.488Z,98219.68
2018-06-20T16:49:27.099Z,98213.66
2018-06-20T16:51:56.863Z,98225.73
2018-06-20T16:54:26.461Z,98224.20
2018-06-20T16:56:56.130Z,98220.48
2018-06-20T16:59:25.830Z,98216.15
2018-06-20T17:02:00.588Z,98213.21
2018-06-20T17:04:30.474Z,98211.88
2018-06-20T17:07:00.100Z,98208.38
2018-06-20T17:09:29.742Z,98208.61
2018-06-20T17:12:04.539Z,98207.06
2018-06-20T17:14:39.324Z,98205.22
2018-06-20T17:17:13.748Z,98201.02
2018-06-20T17:19:48.137Z,98200.80
2018-06-20T17:22:22.617Z,98209.89
2018-06-20T17:24:57.181Z,98204.80
2018-06-20T17:27:26.456Z,98201.25
2018-06-20T17:29:55.789Z,98205.45
2018-06-20T17:32:25.207Z,98201.53
2018-06-20T17:34:54.625Z,98202.29
2018-06-20T17:37:23.970Z,98197.14
2018-06-20T17:39:53.308Z,98197.09
2018-06-20T17:42:22.644Z,98194.22
2018-06-20T17:44:51.996Z,98191.41
2018-06-20T17:47:21.343Z,98194.97
2018-06-20T17:49:50.660Z,98188.28
2018-06-20T17:52:20.125Z,98180.89
2018-06-20T17:54:49.479Z,98182.69
2018-06-20T17:57:18.900Z,98181.75
2018-06-20T17:59:48.237Z,98178.13
2018-06-20T18:02:17.592Z,98172.66
2018-06-20T18:04:51.998Z,98177.72
2018-06-20T18:07:26.788Z,98174.66
2018-06-20T18:10:01.385Z,98175.78
2018-06-20T18:12:36.031Z,98174.58
2018-06-20T18:15:11.552Z,98171.66
2018-06-20T18:17:41.597Z,98178.98
2018-06-20T18:20:10.941Z,98177.85
2018-06-20T18:22:40.261Z,98170.89
2018-06-20T18:25:09.599Z,98169.31
2018-06-20T18:27:38.944Z,98164.64
2018-06-20T18:30:08.271Z,98168.23
2018-06-20T18:32:37.698Z,98164.75
2018-06-20T18:35:07.234Z,98160.33
2018-06-20T18:37:36.564Z,98156.75
2018-06-20T18:40:08.297Z,98155.55
2018-06-20T18:42:37.891Z,98161.16
2018-06-20T18:45:07.258Z,98160.48
2018-06-20T18:47:41.900Z,98161.71
2018-06-20T18:50:11.240Z,98165.47
2018-06-20T18:52:40.613Z,98160.59
2018-06-20T18:55:10.028Z,98161.47
2018-06-20T18:57:44.571Z,98157.69
2018-06-20T19:00:19.076Z,98154.94
2018-06-20T19:02:53.894Z,98155.09
2018-06-20T19:05:29.138Z,98156.66
2018-06-20T19:08:04.859Z,98153.20
2018-06-20T19:10:34.247Z,98151.64
2018-06-20T19:13:03.720Z,98157.77
2018-06-20T19:15:33.686Z,98156.18
2018-06-20T19:18:03.901Z,98159.58
2018-06-20T19:20:33.844Z,98160.08
2018-06-20T19:23:03.373Z,98160.52
2018-06-20T19:25:32.726Z,98162.80
2018-06-20T19:28:02.391Z,98163.84
2018-06-20T19:30:31.771Z,98167.36
2018-06-20T19:33:02.337Z,98166.77
2018-06-20T19:35:31.875Z,98173.06
2018-06-20T19:38:01.432Z,98171.64
2018-06-20T19:40:31.582Z,98170.30
2018-06-20T19:43:01.008Z,98169.45
2018-06-20T19:45:30.128Z,98168.84
2018-06-20T19:47:59.509Z,98165.55
2018-06-20T19:50:28.863Z,98170.86
2018-06-20T19:52:58.321Z,98177.28
2018-06-20T19:55:27.413Z,98176.11
2018-06-20T19:57:56.776Z,98172.42
2018-06-20T20:00:26.542Z,98169.73
2018-06-20T20:02:56.654Z,98169.56
2018-06-20T20:05:26.058Z,98172.36
2018-06-20T20:07:55.402Z,98170.11
2018-06-20T20:10:24.841Z,98166.78
2018-06-20T20:12:54.223Z,98175.78
2018-06-20T20:15:23.593Z,98179.94
2018-06-20T20:17:52.966Z,98175.88
2018-06-20T20:20:22.374Z,98178.32
2018-06-20T20:22:51.913Z,98177.95
2018-06-20T20:25:21.285Z,98179.98
2018-06-20T20:27:50.644Z,98179.92
2018-06-20T20:30:20.020Z,98180.39
2018-06-20T20:32:49.365Z,98179.69
2018-06-20T20:35:18.773Z,98179.06
2018-06-20T20:37:48.126Z,98185.87
2018-06-20T20:40:17.438Z,98187.48
2018-06-20T20:42:46.843Z,98179.48
2018-06-20T20:45:16.164Z,98178.22
2018-06-20T20:47:45.573Z,98188.19
2018-06-20T20:50:15.124Z,98185.72
2018-06-20T20:52:44.446Z,98187.44
2018-06-20T20:55:13.875Z,98183.95
2018-06-20T20:57:43.200Z,98190.11
2018-06-20T21:00:12.549Z,98182.34
2018-06-20T21:02:41.880Z,98186.14
2018-06-20T21:05:11.261Z,98182.99
2018-06-20T21:07:40.637Z,98185.64
2018-06-20T21:10:09.991Z,98181.91
2018-06-20T21:12:39.328Z,98181.53
2018-06-20T21:15:08.669Z,98179.06
2018-06-20T21:17:38.044Z,98181.74
2018-06-20T21:20:07.413Z,98177.97
2018-06-20T21:22:36.741Z,98178.02
2018-06-20T21:25:06.060Z,98175.73
2018-06-20T21:27:35.587Z,98170.20
2018-06-20T21:30:04.952Z,98167.03
2018-06-20T21:32:34.266Z,98163.30
2018-06-20T21:35:03.603Z,98169.88
2018-06-20T21:37:33.793Z,98164.80
2018-06-20T21:40:04.836Z,98163.82
2018-06-20T21:42:34.179Z,98154.13
2018-06-20T21:45:03.520Z,98163.80
2018-06-20T21:47:32.853Z,98162.45
2018-06-20T21:50:02.207Z,98156.66
2018-06-20T21:52:31.585Z,98161.27
2018-06-20T21:55:00.951Z,98158.15
2018-06-20T21:57:30.348Z,98149.61
2018-06-20T21:59:59.680Z,98148.38
2018-06-20T22:02:29.023Z,98148.03
2018-06-20T22:04:58.465Z,98143.11
2018-06-20T22:07:27.797Z,98135.96
2018-06-20T22:09:57.113Z,98138.91
2018-06-20T22:12:26.444Z,98139.02
2018-06-20T22:14:55.780Z,98136.80
2018-06-20T22:17:25.077Z,98129.08
2018-06-20T22:19:55.246Z,98130.00
2018-06-20T22:22:24.619Z,98132.44
2018-06-20T22:24:53.979Z,98134.31
2018-06-20T22:27:23.412Z,98127.24
2018-06-20T22:29:52.769Z,98114.78
2018-06-20T22:32:22.127Z,98115.80
2018-06-20T22:34:51.189Z,98118.14
2018-06-20T22:37:20.496Z,98115.64
2018-06-20T22:39:49.871Z,98121.88
2018-06-20T22:42:19.224Z,98115.33
2018-06-20T22:44:48.659Z,98116.34
2018-06-20T22:47:17.962Z,98116.23
2018-06-20T22:49:47.340Z,98115.81
2018-06-20T22:52:16.698Z,98113.74
2018-06-20T22:54:46.041Z,98112.66
2018-06-20T22:57:15.366Z,98114.42
2018-06-20T22:59:44.703Z,98117.75
2018-06-20T23:02:14.028Z,98116.69
2018-06-20T23:04:43.348Z,98111.20
2018-06-20T23:07:12.672Z,98114.41
2018-06-20T23:09:42.067Z,98104.59
2018-06-20T23:12:11.333Z,98101.38
2018-06-20T23:14:40.706Z,98088.33
2018-06-20T23:17:10.045Z,98091.88
2018-06-20T23:19:39.379Z,98093.34
2018-06-20T23:22:08.737Z,98099.91
2018-06-20T23:24:38.036Z,98092.38
2018-06-20T23:27:07.459Z,98095.06
2018-06-20T23:29:36.789Z,98091.28
2018-06-20T23:32:06.197Z,98086.81
2018-06-20T23:34:35.519Z,98086.34
2018-06-20T23:37:04.853Z,98074.43
2018-06-20T23:39:34.181Z,98072.47
2018-06-20T23:42:03.509Z,98075.86
2018-06-20T23:44:32.844Z,98074.25
2018-06-20T23:47:02.152Z,98069.08
2018-06-20T23:49:31.548Z,98073.61
2018-06-20T23:52:01.168Z,98065.47
2018-06-20T23:54:30.499Z,98064.73
2018-06-20T23:56:59.820Z,98073.15
2018-06-20T23:59:29.148Z,98065.91
